createdAt,value
2023-05-05T10:54:55.242Z,9.60
2023-05-05T10:57:26.775Z,8.50
2023-05-05T10:59:54.115Z,8.80
2023-05-05T11:02:25.300Z,9.30
2023-05-05T11:05:25.426Z,7.70
2023-05-05T11:07:52.784Z,5.20
2023-05-05T11:10:21.015Z,5.50
2023-05-05T11:12:51.710Z,5.70
2023-05-05T11:15:30.894Z,5.50
2023-05-05T11:18:06.798Z,5.90
2023-05-05T11:20:42.865Z,7.30
2023-05-05T11:23:10.303Z,6.30
2023-05-05T11:25:40.039Z,8.70
2023-05-05T11:28:18.762Z,6.00
2023-05-05T11:30:58.400Z,10.30
2023-05-05T11:33:35.673Z,6.10
2023-05-05T11:36:07.454Z,6.60
2023-05-05T11:39:09.805Z,5.40
2023-05-05T11:41:41.296Z,8.80
2023-05-05T11:44:14.677Z,6.30
2023-05-05T11:46:50.925Z,7.20
2023-05-05T11:49:29.867Z,7.00
2023-05-05T11:51:59.403Z,9.30
2023-05-05T11:54:27.929Z,5.90
2023-05-05T11:57:05.118Z,9.60
2023-05-05T11:59:49.604Z,7.10
2023-05-05T12:02:19.543Z,6.50
2023-05-05T12:04:48.545Z,5.90
2023-05-05T12:07:28.644Z,9.80
2023-05-05T12:09:56.509Z,7.90
2023-05-05T12:12:40.981Z,7.00
2023-05-05T12:15:09.545Z,6.30
2023-05-05T12:17:45.489Z,8.40
2023-05-05T12:20:13.328Z,7.00
2023-05-05T12:22:41.384Z,8.50
2023-05-05T12:25:09.654Z,6.80
2023-05-05T12:27:38.144Z,5.90
2023-05-05T12:30:18.135Z,6.70
2023-05-05T12:32:45.764Z,5.80
2023-05-05T12:35:14.332Z,7.80
2023-05-05T12:37:43.100Z,6.90
2023-05-05T12:40:46.208Z,8.60
2023-05-05T12:43:34.850Z,7.60
2023-05-05T12:46:11.761Z,8.60
2023-05-05T12:48:43.995Z,5.90
2023-05-05T12:51:26.692Z,9.90
2023-05-05T12:54:07.824Z,8.30
2023-05-05T12:56:45.579Z,7.90
2023-05-05T12:59:22.332Z,8.70
2023-05-05T13:01:57.795Z,11.40
2023-05-05T13:04:27.518Z,8.10
2023-05-05T13:07:13.098Z,8.20
2023-05-05T13:09:40.770Z,10.30
2023-05-05T13:12:11.162Z,7.30
2023-05-05T13:14:40.283Z,7.00
2023-05-05T13:17:08.044Z,9.90
2023-05-05T13:19:41.202Z,7.80
2023-05-05T13:22:12.390Z,9.00
2023-05-05T13:24:50.509Z,7.40
2023-05-05T13:27:20.689Z,9.10
2023-05-05T13:29:48.362Z,9.50
2023-05-05T13:32:15.926Z,8.30
2023-05-05T13:34:43.705Z,10.90
2023-05-05T13:37:11.013Z,14.50
2023-05-05T13:39:38.265Z,11.60
2023-05-05T13:42:05.581Z,13.70
2023-05-05T13:44:32.948Z,11.00
2023-05-05T13:47:00.355Z,8.30
2023-05-05T13:49:27.799Z,9.50
2023-05-05T13:51:55.872Z,10.20
2023-05-05T13:54:23.273Z,11.70
2023-05-05T13:56:50.711Z,10.80
2023-05-05T13:59:18.094Z,11.00
2023-05-05T14:01:45.553Z,11.70
2023-05-05T14:04:13.027Z,10.60
2023-05-05T14:06:40.334Z,12.80
2023-05-05T14:09:07.594Z,11.80
2023-05-05T14:11:34.952Z,18.10
2023-05-05T14:14:02.469Z,12.70
2023-05-05T14:16:30.218Z,10.20
2023-05-05T14:18:57.837Z,11.00
2023-05-05T14:21:25.263Z,8.50
2023-05-05T14:23:52.594Z,17.50
2023-05-05T14:26:19.870Z,14.30
2023-05-05T14:28:49.516Z,12.50
2023-05-05T14:31:17.791Z,12.10
2023-05-05T14:33:46.065Z,12.00
2023-05-05T14:36:14.864Z,10.00
2023-05-05T14:38:42.405Z,10.60
2023-05-05T14:41:10.476Z,10.20
2023-05-05T14:43:37.876Z,15.70
2023-05-05T14:46:06.842Z,8.60
2023-05-05T14:48:35.329Z,11.00
2023-05-05T14:51:03.189Z,11.90
2023-05-05T14:53:31.093Z,8.70
2023-05-05T14:55:58.593Z,9.00
2023-05-05T14:58:25.849Z,12.80
2023-05-05T15:00:54.061Z,11.60
2023-05-05T15:03:21.580Z,12.40
2023-05-05T15:05:49.207Z,10.40
2023-05-05T15:08:18.751Z,9.70
2023-05-05T15:10:46.641Z,15.40
2023-05-05T15:13:14.542Z,11.00
2023-05-05T15:15:42.293Z,12.40
2023-05-05T15:18:09.729Z,7.10
2023-05-05T15:20:37.477Z,6.30
2023-05-05T15:23:05.360Z,6.00
2023-05-05T15:25:32.867Z,9.50
2023-05-05T15:28:00.483Z,6.90
2023-05-05T15:30:28.297Z,7.20
2023-05-05T15:32:56.067Z,6.70
2023-05-05T15:35:25.233Z,7.50
2023-05-05T15:37:55.896Z,6.50
2023-05-05T15:40:23.716Z,8.00
2023-05-05T15:42:51.285Z,8.10
2023-05-05T15:45:18.839Z,5.90
2023-05-05T15:47:47.490Z,5.70
2023-05-05T15:50:15.688Z,7.80
2023-05-05T15:52:43.249Z,7.20
2023-05-05T15:55:11.627Z,6.90
2023-05-05T15:57:40.036Z,5.50
2023-05-05T16:00:09.216Z,5.20
2023-05-05T16:02:38.060Z,6.00
2023-05-05T16:05:06.692Z,8.80
2023-05-05T16:07:34.346Z,5.10
2023-05-05T16:10:02.746Z,6.30
2023-05-05T16:12:30.289Z,5.70
2023-05-05T16:14:58.380Z,6.20
2023-05-05T16:17:26.149Z,5.20
2023-05-05T16:19:53.684Z,8.90
2023-05-05T16:22:21.253Z,6.30
2023-05-05T16:24:48.802Z,7.30
2023-05-05T16:27:16.574Z,7.20
2023-05-05T16:29:44.251Z,5.10
2023-05-05T16:32:12.005Z,10.60
2023-05-05T16:34:39.559Z,8.60
2023-05-05T16:37:07.120Z,5.80
2023-05-05T16:39:39.622Z,7.40
2023-05-05T16:42:07.275Z,5.80
2023-05-05T16:44:34.917Z,6.90
2023-05-05T16:47:02.425Z,8.20
2023-05-05T16:49:29.949Z,5.60
2023-05-05T16:51:57.845Z,9.80
2023-05-05T16:54:25.409Z,8.70
2023-05-05T16:56:53.340Z,7.40
2023-05-05T16:59:20.793Z,7.70
2023-05-05T17:01:48.428Z,7.90
2023-05-05T17:04:16.027Z,8.90
2023-05-05T17:06:43.577Z,10.40
2023-05-05T17:09:11.062Z,13.40
2023-05-05T17:11:38.699Z,19.10
2023-05-05T17:14:06.366Z,15.90
2023-05-05T17:16:34.057Z,15.80
2023-05-05T17:19:01.913Z,23.80
2023-05-05T17:21:29.476Z,15.00
2023-05-05T17:23:57.229Z,15.00
2023-05-05T17:26:24.880Z,11.60
2023-05-05T17:28:52.347Z,12.70
2023-05-05T17:31:19.939Z,14.90
2023-05-05T17:33:47.988Z,18.60
2023-05-05T17:36:15.456Z,18.50
2023-05-05T17:38:42.940Z,16.90
2023-05-05T17:41:10.972Z,17.90
2023-05-05T17:43:38.513Z,18.90
2023-05-05T17:46:06.312Z,21.50
2023-05-05T17:48:34.060Z,25.20
2023-05-05T17:51:02.837Z,14.90
2023-05-05T17:53:30.713Z,21.30
2023-05-05T17:55:58.384Z,19.50
2023-05-05T17:58:26.240Z,17.80
2023-05-05T18:00:53.936Z,21.10
2023-05-05T18:03:21.629Z,25.00
2023-05-05T18:05:49.338Z,25.10
2023-05-05T18:08:18.130Z,24.00
2023-05-05T18:10:45.791Z,24.40
2023-05-05T18:13:13.464Z,20.80
2023-05-05T18:15:41.440Z,20.50
2023-05-05T18:18:09.243Z,24.10
2023-05-05T18:20:36.844Z,22.30
2023-05-05T18:23:06.828Z,24.70
2023-05-05T18:25:34.326Z,25.30
2023-05-05T18:28:01.929Z,20.50
2023-05-05T18:30:29.970Z,25.20
2023-05-05T18:32:57.547Z,24.70
2023-05-05T18:35:25.489Z,24.70
2023-05-05T18:37:54.640Z,28.90
2023-05-05T18:40:22.559Z,26.20
2023-05-05T18:42:50.732Z,33.00
2023-05-05T18:45:18.439Z,21.20
2023-05-05T18:47:46.088Z,21.20
2023-05-05T18:50:13.815Z,20.10
2023-05-05T18:52:41.276Z,19.60
2023-05-05T18:55:09.744Z,17.10
2023-05-05T18:57:37.643Z,19.50
2023-05-05T19:00:09.116Z,20.60
2023-05-05T19:02:36.596Z,16.00
2023-05-05T19:05:05.862Z,16.80
2023-05-05T19:07:35.350Z,16.80
2023-05-05T19:10:07.844Z,16.30
2023-05-05T19:12:35.350Z,16.80
2023-05-05T19:15:03.081Z,14.60
2023-05-05T19:17:30.727Z,17.10
2023-05-05T19:19:58.595Z,12.60
2023-05-05T19:22:26.349Z,13.30
2023-05-05T19:24:53.853Z,13.30
2023-05-05T19:27:21.381Z,15.10
2023-05-05T19:29:51.681Z,15.80
2023-05-05T19:32:21.059Z,13.70
2023-05-05T19:34:48.876Z,13.90
2023-05-05T19:37:16.404Z,13.40
2023-05-05T19:39:45.335Z,15.20
2023-05-05T19:42:13.365Z,20.30
2023-05-05T19:44:40.825Z,13.70
2023-05-05T19:47:09.079Z,16.80
2023-05-05T19:49:38.335Z,15.70
2023-05-05T19:52:05.868Z,14.60
2023-05-05T19:54:33.429Z,15.20
2023-05-05T19:57:01.497Z,19.60
2023-05-05T19:59:29.160Z,16.50
2023-05-05T20:01:56.730Z,15.00
2023-05-05T20:04:24.485Z,18.30
2023-05-05T20:06:52.141Z,13.40
2023-05-05T20:09:19.622Z,17.10
2023-05-05T20:11:47.163Z,12.70
2023-05-05T20:14:14.625Z,13.00
2023-05-05T20:16:42.184Z,16.80
2023-05-05T20:19:09.746Z,18.60
2023-05-05T20:21:37.338Z,12.30
2023-05-05T20:24:06.690Z,11.80
2023-05-05T20:26:34.056Z,12.40
2023-05-05T20:29:01.543Z,13.80
2023-05-05T20:31:29.094Z,15.20
2023-05-05T20:33:56.656Z,12.90
2023-05-05T20:36:26.278Z,15.10
2023-05-05T20:38:53.819Z,12.80
2023-05-05T20:41:21.679Z,13.00
2023-05-05T20:43:49.279Z,13.70
2023-05-05T20:46:16.952Z,12.50
2023-05-05T20:48:44.573Z,13.40
2023-05-05T20:51:12.143Z,14.30
2023-05-05T20:53:40.214Z,15.00
2023-05-05T20:56:08.958Z,13.30
2023-05-05T20:58:36.768Z,14.60
2023-05-05T21:01:04.454Z,10.90
2023-05-05T21:03:32.046Z,12.20
2023-05-05T21:05:59.630Z,13.80
2023-05-05T21:08:28.834Z,14.40
2023-05-05T21:10:56.293Z,20.00
2023-05-05T21:13:24.341Z,21.80
2023-05-05T21:15:51.935Z,19.30
2023-05-05T21:18:19.564Z,22.40
2023-05-05T21:20:47.045Z,20.90
2023-05-05T21:23:14.707Z,25.60
2023-05-05T21:25:42.296Z,17.90
2023-05-05T21:28:10.667Z,20.20
2023-05-05T21:30:38.447Z,15.70
2023-05-05T21:33:06.014Z,17.90
2023-05-05T21:35:33.753Z,13.10
2023-05-05T21:38:01.303Z,15.40
2023-05-05T21:40:28.859Z,15.40
2023-05-05T21:42:56.531Z,17.60
2023-05-05T21:45:24.018Z,17.90
2023-05-05T21:47:51.797Z,14.70
2023-05-05T21:50:19.715Z,15.00
2023-05-05T21:52:47.195Z,15.80
2023-05-05T21:55:15.146Z,15.90
2023-05-05T21:57:43.036Z,15.90
2023-05-05T22:00:16.028Z,19.70
2023-05-05T22:02:45.226Z,17.00
2023-05-05T22:05:12.965Z,18.20
2023-05-05T22:07:40.629Z,17.50
2023-05-05T22:10:09.358Z,19.10
2023-05-05T22:12:37.060Z,16.70
2023-05-05T22:15:06.054Z,14.20
2023-05-05T22:17:33.479Z,14.90
2023-05-05T22:20:00.989Z,16.10
2023-05-05T22:22:28.547Z,15.30
2023-05-05T22:24:56.134Z,16.20
2023-05-05T22:27:24.605Z,18.90
2023-05-05T22:29:52.152Z,18.60
2023-05-05T22:32:20.126Z,17.30
2023-05-05T22:34:47.991Z,20.30
2023-05-05T22:37:15.752Z,14.60
2023-05-05T22:39:43.945Z,13.00
2023-05-05T22:42:11.590Z,15.80
2023-05-05T22:44:39.160Z,15.50
2023-05-05T22:47:06.653Z,15.60
2023-05-05T22:49:34.719Z,15.40
2023-05-05T22:52:03.067Z,15.40
2023-05-05T22:54:30.518Z,15.50
2023-05-05T22:56:58.087Z,14.40
2023-05-05T22:59:25.553Z,13.20
2023-05-05T23:01:53.018Z,14.90
2023-05-05T23:04:20.484Z,14.50
2023-05-05T23:06:48.162Z,13.40
2023-05-05T23:09:15.785Z,13.00
2023-05-05T23:11:43.256Z,12.20
2023-05-05T23:14:10.901Z,12.30
2023-05-05T23:16:38.403Z,16.40
2023-05-05T23:19:05.921Z,12.60
2023-05-05T23:21:38.906Z,15.90
2023-05-05T23:24:13.299Z,14.10
2023-05-05T23:26:40.801Z,15.40
2023-05-05T23:29:08.259Z,13.50
2023-05-05T23:31:35.813Z,13.80
2023-05-05T23:34:03.363Z,13.00
2023-05-05T23:36:30.822Z,13.10
2023-05-05T23:38:58.410Z,14.00
2023-05-05T23:41:25.945Z,16.10
2023-05-05T23:43:53.339Z,16.10
2023-05-05T23:46:20.883Z,13.50
2023-05-05T23:48:49.234Z,15.80
2023-05-05T23:51:17.635Z,16.80
2023-05-05T23:53:45.242Z,13.10
2023-05-05T23:56:12.750Z,16.20
2023-05-05T23:58:40.301Z,16.80
